Time,TemperatureF,DewpointF,PressureIn,WindDirection,WindDirectionDegrees,WindSpeedMPH,WindSpeedGustMPH,Humidity,HourlyPrecipIn,Conditions,Clouds,dailyrainin,SolarRadiationWatts/m^2,SoftwareType,DateUTC
2013-07-27 00:01:00,64.8,64.5,29.90,West,270,0.0,2.0,99,0.00,RA,SCT,0.00,0.0,WeatherDisplay:10.37,2013-07-27 04:01:00,
2013-07-27 00:05:00,64.8,64.5,29.90,West,270,0.0,1.0,99,0.00,RA,SCT,0.00,0.0,WeatherDisplay:10.37,2013-07-27 04:05:00,
2013-07-27 00:10:00,64.4,64.1,29.90,NW,310,0.0,1.0,99,0.00,CLR,SCT,0.00,0.0,WeatherDisplay:10.37,2013-07-27 04:10:00,
2013-07-27 00:15:00,64.4,64.1,29.90,North,350,0.0,2.0,99,0.00,CLR,SCT,0.00,0.0,WeatherDisplay:10.37,2013-07-27 04:15:00,
2013-07-27 00:20:00,64.4,64.1,29.90,ENE,73,0.0,2.0,99,0.00,CLR,SCT,0.00,0.0,WeatherDisplay:10.37,2013-07-27 04:20:00,
2013-07-27 00:25:00,64.2,63.9,29.90,East,90,0.0,1.0,99,0.00,CLR,SCT,0.00,0.0,WeatherDisplay:10.37,2013-07-27 04:25:00,
2013-07-27 00:31:00,64.2,63.9,29.90,East,90,0.0,2.0,99,0.00,CLR,SCT,0.00,0.0,WeatherDisplay:10.37,2013-07-27 04:31:00,
2013-07-27 00:40:00,64.2,63.9,29.90,SW,218,0.0,2.0,99,0.00,CLR,SCT,0.00,0.0,WeatherDisplay:10.37,2013-07-27 04:40:00,
2013-07-27 00:45:00,64.2,63.9,29.90,East,90,0.0,2.0,99,0.00,CLR,SCT,0.00,0.0,WeatherDisplay:10.37,2013-07-27 04:45:00,
2013-07-27 00:55:00,64.0,63.7,29.90,SE,133,0.0,2.0,99,0.00,CLR,SCT,0.00,0.0,WeatherDisplay:10.37,2013-07-27 04:55:00,
2013-07-27 01:01:00,63.7,63.4,29.90,SE,143,0.0,1.0,99,0.00,CLR,SCT,0.00,0.0,WeatherDisplay:10.37,2013-07-27 05:01:00,
2013-07-27 01:10:00,63.3,63.0,29.90,SW,224,0.0,1.0,99,0.00,CLR,SCT,0.00,0.0,WeatherDisplay:10.37,2013-07-27 05:10:00,
2013-07-27 01:15:00,63.1,62.9,29.90,West,264,0.0,2.0,99,0.00,CLR,SCT,0.00,0.0,WeatherDisplay:10.37,2013-07-27 05:15:00,
2013-07-27 01:25:00,63.0,62.7,29.90,ESE,106,0.0,1.0,99,0.00,CLR,SCT,0.00,0.0,WeatherDisplay:10.37,2013-07-27 05:25:00,
2013-07-27 01:31:00,62.8,62.5,29.90,ESE,114,0.0,1.0,99,0.00,CLR,SCT,0.00,0.0,WeatherDisplay:10.37,2013-07-27 05:31:00,
2013-07-27 01:40:00,62.8,62.5,29.90,NNE,18,0.0,3.0,99,0.00,CLR,SCT,0.00,0.0,WeatherDisplay:10.37,2013-07-27 05:40:00,
2013-07-27 01:46:00,62.8,62.5,29.90,East,85,0.0,2.0,99,0.00,CLR,SCT,0.00,0.0,WeatherDisplay:10.37,2013-07-27 05:46:00,
2013-07-27 01:55:00,62.6,62.3,29.90,East,90,0.0,2.0,99,0.00,CLR,SCT,0.00,0.0,WeatherDisplay:10.37,2013-07-27 05:55:00,
2013-07-27 02:01:00,62.6,62.3,29.90,East,90,0.0,1.0,99,0.00,CLR,SCT,0.00,0.0,WeatherDisplay:10.37,2013-07-27 06:01:00,
2013-07-27 02:10:00,62.4,62.1,29.89,West,270,0.0,1.0,99,0.00,CLR,SCT,0.00,0.0,WeatherDisplay:10.37,2013-07-27 06:10:00,
2013-07-27 02:15:00,62.4,62.1,29.90,NNW,327,0.0,1.0,99,0.00,CLR,SCT,0.00,0.0,WeatherDisplay:10.37,2013-07-27 06:15:00,
2013-07-27 02:25:00,62.2,62.0,29.90,NW,315,0.0,1.0,99,0.00,CLR,SCT,0.00,0.0,WeatherDisplay:10.37,2013-07-27 06:25:00,
2013-07-27 02:31:00,62.1,61.8,29.90,NW,315,0.0,1.0,99,0.00,CLR,SCT,0.00,0.0,WeatherDisplay:10.37,2013-07-27 06:31:00,
2013-07-27 02:40:00,61.9,61.6,29.90,NW,308,0.0,1.0,99,0.00,CLR,SCT,0.00,0.0,WeatherDisplay:10.37,2013-07-27 06:40:00,
2013-07-27 02:45:00,61.7,61.4,29.90,SW,220,0.0,1.0,99,0.00,CLR,SCT,0.00,0.0,WeatherDisplay:10.37,2013-07-27 06:45:00,
2013-07-27 02:55:00,61.6,61.4,29.90,South,180,0.0,2.0,99,0.00,CLR,SCT,0.00,0.0,WeatherDisplay:10.37,2013-07-27 06:55:00,
2013-07-27 03:01:00,61.5,61.2,29.90,South,180,0.0,2.0,99,0.00,CLR,SCT,0.00,0.0,WeatherDisplay:10.37,2013-07-27 07:01:00,
2013-07-27 03:10:00,61.2,60.9,29.90,South,180,0.0,2.0,99,0.00,CLR,SCT,0.00,0.0,WeatherDisplay:10.37,2013-07-27 07:10:00,
2013-07-27 03:15:00,61.1,60.8,29.89,South,180,0.0,2.0,99,0.00,CLR,SCT,0.00,0.0,WeatherDisplay:10.37,2013-07-27 07:15:00,
2013-07-27 03:25:00,60.8,60.5,29.89,South,180,0.0,1.0,99,0.00,CLR,SCT,0.00,0.0,WeatherDisplay:10.37,2013-07-27 07:25:00,
2013-07-27 03:31:00,60.8,60.5,29.90,South,180,0.0,0.0,99,0.00,CLR,SCT,0.00,0.0,WeatherDisplay:10.37,2013-07-27 07:31:00,
2013-07-27 03:40:00,60.6,60.3,29.90,South,180,0.0,0.0,99,0.00,CLR,SCT,0.00,0.0,WeatherDisplay:10.37,2013-07-27 07:40:00,
2013-07-27 03:45:00,60.5,60.2,29.90,South,180,0.0,0.0,99,0.00,CLR,SCT,0.00,0.0,WeatherDisplay:10.37,2013-07-27 07:45:00,
2013-07-27 03:55:00,60.4,60.2,29.91,NNE,33,0.0,1.0,99,0.00,CLR,SCT,0.00,0.0,WeatherDisplay:10.37,2013-07-27 07:55:00,
2013-07-27 04:01:00,60.4,60.2,29.91,North,10,0.0,1.0,99,0.00,CLR,SCT,0.00,0.0,WeatherDisplay:10.37,2013-07-27 08:01:00,
2013-07-27 04:10:00,60.3,60.0,29.91,West,270,0.0,1.0,99,0.00,CLR,SCT,0.00,0.0,WeatherDisplay:10.37,2013-07-27 08:10:00,
2013-07-27 04:15:00,60.1,59.8,29.91,WNW,299,0.0,2.0,99,0.00,CLR,SCT,0.00,0.0,WeatherDisplay:10.37,2013-07-27 08:15:00,
2013-07-27 04:25:00,60.1,59.8,29.91,North,359,0.0,2.0,99,0.00,CLR,SCT,0.00,0.0,WeatherDisplay:10.37,2013-07-27 08:25:00,
2013-07-27 04:31:00,60.1,59.8,29.91,NE,39,0.0,4.0,99,0.00,CLR,SCT,0.00,0.0,WeatherDisplay:10.37,2013-07-27 08:31:00,
2013-07-27 04:40:00,60.5,60.2,29.91,East,88,0.0,3.0,99,0.00,CLR,SCT,0.00,0.0,WeatherDisplay:10.37,2013-07-27 08:40:00,
2013-07-27 04:45:00,60.8,60.5,29.91,East,85,1.0,3.0,99,0.00,CLR,SCT,0.00,0.0,WeatherDisplay:10.37,2013-07-27 08:45:00,
2013-07-27 04:55:00,61.0,60.7,29.91,NE,45,0.0,2.0,99,0.00,CLR,SCT,0.00,0.0,WeatherDisplay:10.37,2013-07-27 08:55:00,
2013-07-27 05:01:00,61.0,60.7,29.91,ENE,76,0.0,2.0,99,0.00,CLR,SCT,0.00,0.0,WeatherDisplay:10.37,2013-07-27 09:01:00,
2013-07-27 05:10:00,60.8,60.5,29.91,NNE,17,0.0,1.0,99,0.00,CLR,SCT,0.00,0.0,WeatherDisplay:10.37,2013-07-27 09:10:00,
2013-07-27 05:15:00,60.5,60.2,29.92,NW,311,0.0,1.0,99,0.00,CLR,SCT,0.00,0.0,WeatherDisplay:10.37,2013-07-27 09:15:00,
2013-07-27 05:25:00,60.1,59.8,29.92,ENE,73,0.0,1.0,99,0.00,CLR,SCT,0.00,0.0,WeatherDisplay:10.37,2013-07-27 09:25:00,
2013-07-27 05:31:00,60.1,59.8,29.92,SSE,167,0.0,0.0,99,0.00,CLR,SCT,0.00,0.0,WeatherDisplay:10.37,2013-07-27 09:31:00,
2013-07-27 05:40:00,59.7,59.4,29.92,South,180,0.0,0.0,99,0.00,CLR,SCT,0.00,0.0,WeatherDisplay:10.37,2013-07-27 09:40:00,
2013-07-27 05:45:00,59.7,59.4,29.92,South,180,0.0,2.0,99,0.00,CLR,SCT,0.00,0.0,WeatherDisplay:10.37,2013-07-27 09:45:00,
2013-07-27 05:55:00,59.4,59.1,29.92,South,180,0.0,0.0,99,0.00,CLR,SCT,0.00,0.0,WeatherDisplay:10.37,2013-07-27 09:55:00,
2013-07-27 06:01:00,59.4,59.1,29.93,South,180,0.0,0.0,99,0.00,CLR,SCT,0.00,0.0,WeatherDisplay:10.37,2013-07-27 10:01:00,
2013-07-27 06:10:00,59.5,59.2,29.93,South,180,0.0,0.0,99,0.00,CLR,SCT,0.00,0.0,WeatherDisplay:10.37,2013-07-27 10:10:00,
2013-07-27 06:15:00,59.5,59.3,29.93,South,180,0.0,2.0,99,0.00,CLR,SCT,0.00,0.0,WeatherDisplay:10.37,2013-07-27 10:15:00,
2013-07-27 06:25:00,59.7,59.4,29.93,South,180,0.0,1.0,99,0.00,CLR,SCT,0.00,0.0,WeatherDisplay:10.37,2013-07-27 10:25:00,
2013-07-27 06:31:00,59.7,59.4,29.93,South,180,0.0,2.0,99,0.00,CLR,SCT,0.00,0.0,WeatherDisplay:10.37,2013-07-27 10:31:00,
2013-07-27 06:40:00,60.1,59.8,29.93,North,0,0.0,2.0,99,0.00,CLR,SCT,0.00,0.0,WeatherDisplay:10.37,2013-07-27 10:40:00,
2013-07-27 06:46:00,60.3,60.0,29.93,North,360,0.0,2.0,99,0.00,CLR,SCT,0.00,0.0,WeatherDisplay:10.37,2013-07-27 10:46:00,
2013-07-27 06:55:00,60.6,60.3,29.93,SW,230,0.0,1.0,99,0.00,CLR,SCT,0.00,0.0,WeatherDisplay:10.37,2013-07-27 10:55:00,
2013-07-27 07:01:00,60.7,60.4,29.94,WSW,241,0.0,1.0,99,0.00,CLR,SCT,0.00,0.0,WeatherDisplay:10.37,2013-07-27 11:01:00,
2013-07-27 07:10:00,61.2,60.9,29.94,WSW,240,0.0,2.0,99,0.00,CLR,SCT,0.00,0.0,WeatherDisplay:10.37,2013-07-27 11:10:00,
2013-07-27 07:15:00,61.3,61.1,29.94,SSW,199,0.0,1.0,99,0.00,CLR,SCT,0.00,0.0,WeatherDisplay:10.37,2013-07-27 11:15:00,
2013-07-27 07:25:00,61.9,61.6,29.94,South,180,0.0,1.0,99,0.00,CLR,SCT,0.00,0.0,WeatherDisplay:10.37,2013-07-27 11:25:00,
2013-07-27 07:31:00,62.1,61.8,29.94,SSW,195,0.0,2.0,99,0.00,CLR,SCT,0.00,0.0,WeatherDisplay:10.37,2013-07-27 11:31:00,
2013-07-27 07:40:00,62.6,62.3,29.94,West,271,0.0,2.0,99,0.00,CLR,SCT,0.00,0.0,WeatherDisplay:10.37,2013-07-27 11:40:00,
2013-07-27 07:45:00,63.1,62.9,29.94,West,274,0.0,2.0,99,0.00,CLR,SCT,0.00,0.0,WeatherDisplay:10.37,2013-07-27 11:45:00,
2013-07-27 07:55:00,63.7,63.4,29.94,SW,225,0.0,2.0,99,0.00,CLR,SCT,0.00,0.0,WeatherDisplay:10.37,2013-07-27 11:55:00,
2013-07-27 08:01:00,64.0,63.8,29.94,WSW,247,0.0,2.0,99,0.00,CLR,SCT,0.00,0.0,WeatherDisplay:10.37,2013-07-27 12:01:00,
2013-07-27 08:10:00,65.3,65.0,29.94,WNW,291,0.0,2.0,99,0.00,CLR,SCT,0.00,0.0,WeatherDisplay:10.37,2013-07-27 12:10:00,
2013-07-27 08:15:00,65.7,65.4,29.94,NW,306,0.0,2.0,99,0.00,CLR,SCT,0.00,0.0,WeatherDisplay:10.37,2013-07-27 12:15:00,
2013-07-27 08:25:00,66.7,66.5,29.95,WNW,300,0.0,2.0,99,0.00,CLR,SCT,0.00,0.0,WeatherDisplay:10.37,2013-07-27 12:25:00,
2013-07-27 08:31:00,67.1,66.8,29.95,NW,305,0.0,2.0,99,0.00,CLR,SCT,0.00,0.0,WeatherDisplay:10.37,2013-07-27 12:31:00,
2013-07-27 08:40:00,68.2,67.9,29.94,NE,42,1.0,2.0,99,0.00,CLR,SCT,0.00,0.0,WeatherDisplay:10.37,2013-07-27 12:40:00,
2013-07-27 08:46:00,68.6,68.3,29.94,NNE,23,0.0,2.0,99,0.00,CLR,SCT,0.00,0.0,WeatherDisplay:10.37,2013-07-27 12:46:00,
2013-07-27 08:55:00,69.4,69.1,29.95,South,177,0.0,2.0,99,0.00,CLR,SCT,0.00,0.0,WeatherDisplay:10.37,2013-07-27 12:55:00,
2013-07-27 09:01:00,69.4,69.1,29.94,ESE,107,0.0,2.0,99,0.00,CLR,SCT,0.00,0.0,WeatherDisplay:10.37,2013-07-27 13:01:00,
2013-07-27 09:10:00,70.6,70.3,29.95,ENE,73,1.0,5.0,99,0.00,CLR,SCT,0.00,0.0,WeatherDisplay:10.37,2013-07-27 13:10:00,
2013-07-27 09:16:00,71.1,70.5,29.95,NNE,27,0.0,3.0,98,0.00,CLR,SCT,0.00,0.0,WeatherDisplay:10.37,2013-07-27 13:16:00,
2013-07-27 09:25:00,71.6,70.7,29.95,North,356,0.0,3.0,97,0.00,CLR,SCT,0.00,0.0,WeatherDisplay:10.37,2013-07-27 13:25:00,
2013-07-27 09:31:00,71.9,70.1,29.94,ENE,60,1.0,3.0,94,0.00,CLR,SCT,0.00,0.0,WeatherDisplay:10.37,2013-07-27 13:31:00,
2013-07-27 09:40:00,72.6,70.2,29.94,ENE,61,1.0,3.0,92,0.00,CLR,SCT,0.00,0.0,WeatherDisplay:10.37,2013-07-27 13:40:00,
2013-07-27 09:46:00,72.9,69.8,29.94,ENE,58,0.0,3.0,90,0.00,CLR,SCT,0.00,0.0,WeatherDisplay:10.37,2013-07-27 13:46:00,
2013-07-27 09:55:00,73.7,69.9,29.94,North,5,0.0,6.0,88,0.00,CLR,SCT,0.00,0.0,WeatherDisplay:10.37,2013-07-27 13:55:00,
2013-07-27 10:01:00,74.1,70.3,29.94,ENE,67,0.0,4.0,88,0.00,CLR,SCT,0.00,0.0,WeatherDisplay:10.37,2013-07-27 14:01:00,
2013-07-27 10:10:00,74.7,70.5,29.94,NE,36,1.0,5.0,87,0.00,CLR,SCT,0.00,0.0,WeatherDisplay:10.37,2013-07-27 14:10:00,
2013-07-27 10:15:00,75.0,70.9,29.94,ENE,72,0.0,3.0,87,0.00,CLR,SCT,0.00,0.0,WeatherDisplay:10.37,2013-07-27 14:15:00,
2013-07-27 10:25:00,75.7,70.5,29.94,East,99,1.0,3.0,84,0.00,CLR,SCT,0.00,0.0,WeatherDisplay:10.37,2013-07-27 14:25:00,
2013-07-27 10:31:00,76.1,71.6,29.94,SE,141,1.0,2.0,86,0.00,CLR,SCT,0.00,0.0,WeatherDisplay:10.37,2013-07-27 14:31:00,
2013-07-27 10:40:00,76.9,70.9,29.94,NNE,24,0.0,3.0,82,0.00,CLR,SCT,0.00,0.0,WeatherDisplay:10.37,2013-07-27 14:40:00,
2013-07-27 10:45:00,77.2,70.9,29.94,NE,40,1.0,3.0,81,0.00,CLR,SCT,0.00,0.0,WeatherDisplay:10.37,2013-07-27 14:45:00,
2013-07-27 10:55:00,77.6,71.7,29.94,NNW,336,1.0,2.0,82,0.00,CLR,SCT,0.00,0.0,WeatherDisplay:10.37,2013-07-27 14:55:00,
2013-07-27 11:01:00,77.7,69.5,29.94,North,355,2.0,6.0,76,0.00,CLR,SCT,0.00,0.0,WeatherDisplay:10.37,2013-07-27 15:01:00,
2013-07-27 11:10:00,78.2,70.8,29.94,ENE,69,1.0,3.0,78,0.00,FEW,SCT,0.00,0.0,WeatherDisplay:10.37,2013-07-27 15:10:00,
2013-07-27 11:16:00,78.5,70.3,29.94,NE,38,1.0,6.0,76,0.00,FEW,SCT,0.00,0.0,WeatherDisplay:10.37,2013-07-27 15:16:00,
2013-07-27 11:25:00,79.1,70.8,29.94,ENE,67,1.0,6.0,76,0.00,FEW,SCT,0.00,0.0,WeatherDisplay:10.37,2013-07-27 15:25:00,
2013-07-27 11:31:00,79.2,70.5,29.94,ENE,68,1.0,6.0,75,0.00,FEW,SCT,0.00,0.0,WeatherDisplay:10.37,2013-07-27 15:31:00,
2013-07-27 11:40:00,79.9,71.2,29.94,East,94,1.0,3.0,75,0.00,FEW,SCT,0.00,0.0,WeatherDisplay:10.37,2013-07-27 15:40:00,
2013-07-27 11:46:00,79.9,70.9,29.94,East,92,0.0,3.0,74,0.00,FEW,SCT,0.00,0.0,WeatherDisplay:10.37,2013-07-27 15:46:00,
2013-07-27 11:55:00,80.7,72.8,29.93,ESE,103,0.0,3.0,77,0.00,FEW,SCT,0.00,0.0,WeatherDisplay:10.37,2013-07-27 15:55:00,
2013-07-27 12:01:00,81.6,73.3,29.93,ESE,103,0.0,5.0,76,0.00,FEW,SCT,0.00,0.0,WeatherDisplay:10.37,2013-07-27 16:01:00,
2013-07-27 12:10:00,82.0,70.0,29.94,ENE,59,2.0,6.0,67,0.00,FEW,SCT,0.00,0.0,WeatherDisplay:10.37,2013-07-27 16:10:00,
2013-07-27 12:16:00,83.0,71.8,29.94,ENE,69,1.0,3.0,69,0.00,FEW,SCT,0.00,0.0,WeatherDisplay:10.37,2013-07-27 16:16:00,
2013-07-27 12:25:00,85.0,71.4,29.93,ENE,60,1.0,5.0,64,0.00,FEW,SCT,0.00,0.0,WeatherDisplay:10.37,2013-07-27 16:25:00,
2013-07-27 12:31:00,85.1,72.0,29.93,East,83,0.0,6.0,65,0.00,FEW,SCT,0.00,0.0,WeatherDisplay:10.37,2013-07-27 16:31:00,
2013-07-27 12:40:00,85.5,70.5,29.93,SSW,203,1.0,6.0,61,0.00,FEW,SCT,0.00,0.0,WeatherDisplay:10.37,2013-07-27 16:40:00,
2013-07-27 12:46:00,85.5,70.0,29.93,SSW,207,2.0,7.0,60,0.00,FEW,SCT,0.00,0.0,WeatherDisplay:10.37,2013-07-27 16:46:00,
2013-07-27 12:55:00,85.3,70.3,29.93,North,1,1.0,6.0,61,0.00,FEW,SCT,0.00,0.0,WeatherDisplay:10.37,2013-07-27 16:55:00,
2013-07-27 13:01:00,85.3,70.3,29.93,North,11,1.0,6.0,61,0.00,FEW,SCT,0.00,0.0,WeatherDisplay:10.37,2013-07-27 17:01:00,
2013-07-27 13:10:00,86.1,71.5,29.92,SSW,200,1.0,4.0,62,0.00,CLR,SCT,0.00,0.0,WeatherDisplay:10.37,2013-07-27 17:10:00,
2013-07-27 13:15:00,86.4,71.8,29.92,SE,144,0.0,5.0,62,0.00,CLR,SCT,0.00,0.0,WeatherDisplay:10.37,2013-07-27 17:15:00,
2013-07-27 13:25:00,86.8,71.7,29.92,SE,146,1.0,5.0,61,0.00,CLR,SCT,0.00,0.0,WeatherDisplay:10.37,2013-07-27 17:25:00,
2013-07-27 13:31:00,86.4,70.8,29.92,SSE,159,0.0,2.0,60,0.00,CLR,SCT,0.00,0.0,WeatherDisplay:10.37,2013-07-27 17:31:00,
2013-07-27 13:40:00,84.9,70.4,29.92,South,188,0.0,2.0,62,0.00,CLR,SCT,0.00,0.0,WeatherDisplay:10.37,2013-07-27 17:40:00,
2013-07-27 13:46:00,84.9,73.2,29.92,SW,233,1.0,2.0,68,0.00,CLR,SCT,0.00,0.0,WeatherDisplay:10.37,2013-07-27 17:46:00,
2013-07-27 13:55:00,84.3,72.1,29.92,NNE,15,1.0,5.0,67,0.00,CLR,SCT,0.00,0.0,WeatherDisplay:10.37,2013-07-27 17:55:00,
2013-07-27 14:01:00,84.6,73.3,29.91,SE,139,1.0,4.0,69,0.00,CLR,SCT,0.00,0.0,WeatherDisplay:10.37,2013-07-27 18:01:00,
2013-07-27 14:11:00,86.3,71.2,29.91,ENE,76,1.0,4.0,61,0.00,SCT,SCT,0.00,0.0,WeatherDisplay:10.37,2013-07-27 18:11:00,
2013-07-27 14:16:00,86.4,69.8,29.91,NE,54,1.0,3.0,58,0.00,SCT,SCT,0.00,0.0,WeatherDisplay:10.37,2013-07-27 18:16:00,
2013-07-27 14:25:00,86.9,72.3,29.91,South,177,0.0,3.0,62,0.00,SCT,SCT,0.00,0.0,WeatherDisplay:10.37,2013-07-27 18:25:00,
2013-07-27 14:31:00,87.1,70.0,29.91,SE,126,1.0,3.0,57,0.00,SCT,SCT,0.00,0.0,WeatherDisplay:10.37,2013-07-27 18:31:00,
2013-07-27 14:40:00,87.6,72.4,29.91,East,101,0.0,3.0,61,0.00,SCT,SCT,0.00,0.0,WeatherDisplay:10.37,2013-07-27 18:40:00,
2013-07-27 14:46:00,88.0,69.8,29.91,SSE,168,1.0,4.0,55,0.00,SCT,SCT,0.00,0.0,WeatherDisplay:10.37,2013-07-27 18:46:00,
2013-07-27 14:55:00,87.1,69.0,29.91,SSE,157,1.0,5.0,55,0.00,SCT,SCT,0.00,0.0,WeatherDisplay:10.37,2013-07-27 18:55:00,
2013-07-27 15:01:00,87.3,70.2,29.91,South,187,1.0,4.0,57,0.00,SCT,SCT,0.00,0.0,WeatherDisplay:10.37,2013-07-27 19:01:00,
2013-07-27 15:10:00,86.9,70.8,29.91,WSW,248,1.0,5.0,59,0.00,SCT,SCT,0.00,0.0,WeatherDisplay:10.37,2013-07-27 19:10:00,
2013-07-27 15:16:00,86.7,71.1,29.91,South,189,1.0,5.0,60,0.00,SCT,SCT,0.00,0.0,WeatherDisplay:10.37,2013-07-27 19:16:00,
2013-07-27 15:25:00,87.1,70.0,29.90,ESE,109,1.0,4.0,57,0.00,SCT,SCT,0.00,0.0,WeatherDisplay:10.37,2013-07-27 19:25:00,
2013-07-27 15:31:00,87.3,69.7,29.90,SE,128,1.0,6.0,56,0.00,SCT,SCT,0.00,0.0,WeatherDisplay:10.37,2013-07-27 19:31:00,
2013-07-27 15:40:00,86.8,70.2,29.90,ESE,115,1.0,4.0,58,0.00,SCT,SCT,0.00,0.0,WeatherDisplay:10.37,2013-07-27 19:40:00,
2013-07-27 15:46:00,86.7,72.1,29.90,SSE,151,0.0,5.0,62,0.00,SCT,SCT,0.00,0.0,WeatherDisplay:10.37,2013-07-27 19:46:00,
2013-07-27 15:55:00,86.1,71.6,29.90,West,267,1.0,3.0,62,0.00,SCT,SCT,0.00,0.0,WeatherDisplay:10.37,2013-07-27 19:55:00,
2013-07-27 16:01:00,85.8,71.3,29.91,West,271,0.0,4.0,62,0.00,SCT,SCT,0.00,0.0,WeatherDisplay:10.37,2013-07-27 20:01:00,
2013-07-27 16:10:00,85.8,71.8,29.90,NW,315,0.0,2.0,63,0.00,FEW,SCT,0.00,0.0,WeatherDisplay:10.37,2013-07-27 20:10:00,
2013-07-27 16:16:00,86.6,72.5,29.90,WNW,295,1.0,5.0,63,0.00,FEW,SCT,0.00,0.0,WeatherDisplay:10.37,2013-07-27 20:16:00,
2013-07-27 16:25:00,86.9,73.2,29.90,ESE,104,0.0,3.0,64,0.00,FEW,SCT,0.00,0.0,WeatherDisplay:10.37,2013-07-27 20:25:00,
2013-07-27 16:31:00,85.9,72.3,29.90,SSE,159,1.0,3.0,64,0.00,FEW,SCT,0.00,0.0,WeatherDisplay:10.37,2013-07-27 20:31:00,
2013-07-27 16:41:00,83.5,72.7,29.90,SE,141,1.0,2.0,70,0.00,FEW,SCT,0.00,0.0,WeatherDisplay:10.37,2013-07-27 20:41:00,
2013-07-27 16:46:00,83.8,72.9,29.89,WSW,249,0.0,2.0,70,0.00,FEW,SCT,0.00,0.0,WeatherDisplay:10.37,2013-07-27 20:46:00,
2013-07-27 16:55:00,84.7,73.8,29.90,West,275,1.0,3.0,70,0.00,FEW,SCT,0.00,0.0,WeatherDisplay:10.37,2013-07-27 20:55:00,
2013-07-27 17:01:00,84.4,73.5,29.89,WNW,291,1.0,3.0,70,0.00,FEW,SCT,0.00,0.0,WeatherDisplay:10.37,2013-07-27 21:01:00,
2013-07-27 17:11:00,84.8,75.1,29.89,SSW,198,0.0,2.0,73,0.00,FEW,SCT,0.00,0.0,WeatherDisplay:10.37,2013-07-27 21:11:00,
2013-07-27 17:16:00,85.0,74.5,29.89,WSW,248,0.0,3.0,71,0.00,FEW,SCT,0.00,0.0,WeatherDisplay:10.37,2013-07-27 21:16:00,
2013-07-27 17:25:00,83.2,72.8,29.90,South,191,0.0,2.0,71,0.00,FEW,SCT,0.00,0.0,WeatherDisplay:10.37,2013-07-27 21:25:00,
2013-07-27 17:31:00,81.7,73.4,29.89,SW,223,1.0,2.0,76,0.00,FEW,SCT,0.00,0.0,WeatherDisplay:10.37,2013-07-27 21:31:00,
2013-07-27 17:41:00,81.0,73.8,29.90,West,270,0.0,2.0,79,0.00,FEW,SCT,0.00,0.0,WeatherDisplay:10.37,2013-07-27 21:41:00,
2013-07-27 17:46:00,80.7,73.2,29.89,SW,221,1.0,3.0,78,0.00,FEW,SCT,0.00,0.0,WeatherDisplay:10.37,2013-07-27 21:46:00,
2013-07-27 17:56:00,79.5,73.5,29.89,SW,229,0.0,2.0,82,0.00,FEW,SCT,0.00,0.0,WeatherDisplay:10.37,2013-07-27 21:56:00,
2013-07-27 18:01:00,79.1,73.1,29.89,West,263,0.0,2.0,82,0.00,FEW,SCT,0.00,0.0,WeatherDisplay:10.37,2013-07-27 22:01:00,
2013-07-27 18:10:00,78.4,73.1,29.89,SSW,196,0.0,2.0,84,0.00,SCT,SCT,0.00,0.0,WeatherDisplay:10.37,2013-07-27 22:10:00,
2013-07-27 18:16:00,78.1,73.6,29.89,South,180,0.0,2.0,86,0.00,SCT,SCT,0.00,0.0,WeatherDisplay:10.37,2013-07-27 22:16:00,
2013-07-27 18:25:00,78.1,74.2,29.89,South,180,0.0,2.0,88,0.00,SCT,SCT,0.00,0.0,WeatherDisplay:10.37,2013-07-27 22:25:00,
2013-07-27 18:31:00,77.5,74.0,29.89,South,180,0.0,2.0,89,0.00,SCT,SCT,0.00,0.0,WeatherDisplay:10.37,2013-07-27 22:31:00,
2013-07-27 18:40:00,77.2,73.7,29.88,South,180,0.0,2.0,89,0.00,SCT,SCT,0.00,0.0,WeatherDisplay:10.37,2013-07-27 22:40:00,
2013-07-27 18:46:00,77.0,73.5,29.89,South,187,0.0,2.0,89,0.00,SCT,SCT,0.00,0.0,WeatherDisplay:10.37,2013-07-27 22:46:00,
2013-07-27 18:55:00,76.6,73.8,29.89,West,270,0.0,0.0,91,0.00,SCT,SCT,0.00,0.0,WeatherDisplay:10.37,2013-07-27 22:55:00,
2013-07-27 19:01:00,76.4,73.6,29.89,West,270,0.0,2.0,91,0.00,SCT,SCT,0.00,0.0,WeatherDisplay:10.37,2013-07-27 23:01:00,
2013-07-27 19:10:00,75.9,73.7,29.89,SSW,192,0.0,2.0,93,0.00,FEW,SCT,0.00,0.0,WeatherDisplay:10.37,2013-07-27 23:10:00,
2013-07-27 19:16:00,75.6,73.8,29.89,South,180,0.0,1.0,94,0.00,FEW,SCT,0.00,0.0,WeatherDisplay:10.37,2013-07-27 23:16:00,
2013-07-27 19:25:00,75.2,73.4,29.89,South,180,0.0,1.0,94,0.00,FEW,SCT,0.00,0.0,WeatherDisplay:10.37,2013-07-27 23:25:00,
2013-07-27 19:31:00,75.0,73.8,29.89,South,180,0.0,2.0,96,0.00,FEW,SCT,0.00,0.0,WeatherDisplay:10.37,2013-07-27 23:31:00,
2013-07-27 19:40:00,74.5,73.6,29.89,South,180,0.0,1.0,97,0.00,FEW,SCT,0.00,0.0,WeatherDisplay:10.37,2013-07-27 23:40:00,
2013-07-27 19:45:00,74.2,73.6,29.89,South,180,0.0,2.0,98,0.00,FEW,SCT,0.00,0.0,WeatherDisplay:10.37,2013-07-27 23:45:00,
2013-07-27 19:55:00,73.9,73.3,29.90,South,180,0.0,1.0,98,0.00,FEW,SCT,0.00,0.0,WeatherDisplay:10.37,2013-07-27 23:55:00,
2013-07-27 20:01:00,73.6,73.0,29.90,South,180,0.0,1.0,98,0.00,FEW,SCT,0.00,0.0,WeatherDisplay:10.37,2013-07-28 00:01:00,
2013-07-27 20:10:00,73.0,72.7,29.90,South,180,0.0,1.0,99,0.00,FEW,SCT,0.00,0.0,WeatherDisplay:10.37,2013-07-28 00:10:00,
2013-07-27 20:15:00,72.7,72.4,29.89,South,180,0.0,0.0,99,0.00,FEW,SCT,0.00,0.0,WeatherDisplay:10.37,2013-07-28 00:15:00,
2013-07-27 20:25:00,72.3,72.0,29.90,South,180,0.0,0.0,99,0.00,FEW,SCT,0.00,0.0,WeatherDisplay:10.37,2013-07-28 00:25:00,
2013-07-27 20:31:00,72.1,71.8,29.90,South,180,0.0,0.0,99,0.00,FEW,SCT,0.00,0.0,WeatherDisplay:10.37,2013-07-28 00:31:00,
2013-07-27 20:40:00,71.8,71.5,29.90,South,180,0.0,0.0,99,0.00,FEW,SCT,0.00,0.0,WeatherDisplay:10.37,2013-07-28 00:40:00,
2013-07-27 20:46:00,71.7,71.4,29.90,South,180,0.0,0.0,99,0.00,FEW,SCT,0.00,0.0,WeatherDisplay:10.37,2013-07-28 00:46:00,
2013-07-27 20:55:00,71.4,71.1,29.91,South,180,0.0,0.0,99,0.00,FEW,SCT,0.00,0.0,WeatherDisplay:10.37,2013-07-28 00:55:00,
2013-07-27 21:01:00,71.2,70.9,29.91,South,180,0.0,0.0,99,0.00,FEW,SCT,0.00,0.0,WeatherDisplay:10.37,2013-07-28 01:01:00,
2013-07-27 21:10:00,71.1,70.8,29.91,South,180,0.0,0.0,99,0.00,CLR,SCT,0.00,0.0,WeatherDisplay:10.37,2013-07-28 01:10:00,
2013-07-27 21:16:00,71.1,70.8,29.92,South,180,0.0,0.0,99,0.00,CLR,SCT,0.00,0.0,WeatherDisplay:10.37,2013-07-28 01:16:00,
2013-07-27 21:25:00,70.9,70.6,29.91,South,180,0.0,0.0,99,0.00,CLR,SCT,0.00,0.0,WeatherDisplay:10.37,2013-07-28 01:25:00,
2013-07-27 21:31:00,70.7,70.4,29.91,South,180,0.0,0.0,99,0.00,CLR,SCT,0.00,0.0,WeatherDisplay:10.37,2013-07-28 01:31:00,
2013-07-27 21:40:00,70.5,70.2,29.91,West,263,0.0,1.0,99,0.00,CLR,SCT,0.00,0.0,WeatherDisplay:10.37,2013-07-28 01:40:00,
2013-07-27 21:45:00,70.5,70.2,29.91,NNW,327,0.0,2.0,99,0.00,CLR,SCT,0.00,0.0,WeatherDisplay:10.37,2013-07-28 01:45:00,
2013-07-27 21:55:00,70.5,70.2,29.91,East,81,0.0,1.0,99,0.00,CLR,SCT,0.00,0.0,WeatherDisplay:10.37,2013-07-28 01:55:00,
2013-07-27 22:01:00,70.5,70.2,29.92,South,178,0.0,1.0,99,0.00,CLR,SCT,0.00,0.0,WeatherDisplay:10.37,2013-07-28 02:01:00,
2013-07-27 22:11:00,70.7,70.4,29.92,NE,52,0.0,2.0,99,0.00,CLR,SCT,0.00,0.0,WeatherDisplay:10.37,2013-07-28 02:11:00,
2013-07-27 22:16:00,70.7,70.4,29.92,NNE,21,0.0,2.0,99,0.00,CLR,SCT,0.00,0.0,WeatherDisplay:10.37,2013-07-28 02:16:00,
2013-07-27 22:25:00,70.7,70.4,29.92,NNW,347,0.0,2.0,99,0.00,CLR,SCT,0.00,0.0,WeatherDisplay:10.37,2013-07-28 02:25:00,
2013-07-27 22:31:00,70.7,70.4,29.92,NE,37,0.0,2.0,99,0.00,CLR,SCT,0.00,0.0,WeatherDisplay:10.37,2013-07-28 02:31:00,
2013-07-27 22:41:00,70.7,70.4,29.92,NW,315,0.0,0.0,99,0.00,CLR,SCT,0.00,0.0,WeatherDisplay:10.37,2013-07-28 02:41:00,
2013-07-27 22:46:00,70.2,69.9,29.93,NW,315,0.0,1.0,99,0.00,CLR,SCT,0.00,0.0,WeatherDisplay:10.37,2013-07-28 02:46:00,
2013-07-27 22:55:00,69.8,69.5,29.92,NW,315,0.0,1.0,99,0.00,CLR,SCT,0.00,0.0,WeatherDisplay:10.37,2013-07-28 02:55:00,
2013-07-27 23:01:00,69.6,69.3,29.92,NW,315,0.0,1.0,99,0.00,CLR,SCT,0.00,0.0,WeatherDisplay:10.37,2013-07-28 03:01:00,
2013-07-27 23:10:00,69.4,69.2,29.92,NW,318,0.0,1.0,99,0.00,CLR,SCT,0.00,0.0,WeatherDisplay:10.37,2013-07-28 03:10:00,
2013-07-27 23:15:00,68.9,68.6,29.92,NNW,344,0.0,1.0,99,0.00,CLR,SCT,0.00,0.0,WeatherDisplay:10.37,2013-07-28 03:15:00,
2013-07-27 23:25:00,68.5,68.2,29.92,NW,317,0.0,1.0,99,0.00,CLR,SCT,0.00,0.0,WeatherDisplay:10.37,2013-07-28 03:25:00,
2013-07-27 23:31:00,68.5,68.2,29.92,NW,315,0.0,0.0,99,0.00,CLR,SCT,0.00,0.0,WeatherDisplay:10.37,2013-07-28 03:31:00,
2013-07-27 23:40:00,68.1,67.8,29.92,North,10,0.0,2.0,99,0.00,CLR,SCT,0.00,0.0,WeatherDisplay:10.37,2013-07-28 03:40:00,
2013-07-27 23:46:00,67.8,67.5,29.92,East,84,0.0,1.0,99,0.00,CLR,SCT,0.00,0.0,WeatherDisplay:10.37,2013-07-28 03:46:00,
2013-07-27 23:55:00,67.4,67.1,29.92,East,90,0.0,0.0,99,0.00,CLR,SCT,0.00,0.0,WeatherDisplay:10.37,2013-07-28 03:55:00,